createdAt,value
2023-04-02T00:00:08.935Z,150650.28
2023-04-02T00:02:45.430Z,150665.38
2023-04-02T00:05:20.055Z,150659.09
2023-04-02T00:07:51.188Z,150650.28
2023-04-02T00:10:34.168Z,150641.41
2023-04-02T00:13:22.875Z,150636.38
2023-04-02T00:15:51.241Z,150659.09
2023-04-02T00:18:20.741Z,150657.84
2023-04-02T00:20:50.587Z,150657.84
2023-04-02T00:23:16.465Z,150671.75
2023-04-02T00:25:44.692Z,150657.84
2023-04-02T00:28:16.935Z,150621.22
2023-04-02T00:30:47.300Z,150584.59
2023-04-02T00:33:22.636Z,150578.28
2023-04-02T00:35:50.369Z,150561.88
2023-04-02T00:38:29.547Z,150583.34
2023-04-02T00:40:57.599Z,150547.97
2023-04-02T00:43:29.987Z,150522.69
2023-04-02T00:46:00.494Z,150491.19
2023-04-02T00:48:32.044Z,150483.56
2023-04-02T00:51:07.287Z,150457.09
2023-04-02T00:53:34.848Z,150481.06
2023-04-02T00:56:02.540Z,150460.88
2023-04-02T00:58:34.773Z,150446.97
2023-04-02T01:01:00.880Z,150425.53
2023-04-02T01:03:28.969Z,150399.03
2023-04-02T01:06:02.997Z,150414.16
2023-04-02T01:08:43.186Z,150411.63
2023-04-02T01:11:21.131Z,150393.97
2023-04-02T01:14:15.881Z,150412.88
2023-04-02T01:17:03.404Z,150423.00
2023-04-02T01:20:07.393Z,150395.22
2023-04-02T01:23:01.780Z,150373.78
2023-04-02T01:25:39.677Z,150361.16
2023-04-02T01:28:20.296Z,150340.97
2023-04-02T01:30:53.566Z,150310.72
2023-04-02T01:33:34.492Z,150308.16
2023-04-02T01:36:11.350Z,150333.41
2023-04-02T01:38:48.853Z,150328.38
2023-04-02T01:41:27.806Z,150334.66
2023-04-02T01:44:02.266Z,150335.94
2023-04-02T01:46:31.559Z,150339.69
2023-04-02T01:49:01.777Z,150313.22
2023-04-02T01:51:33.894Z,150318.25
2023-04-02T01:54:05.404Z,150320.78
2023-04-02T01:56:31.517Z,150266.50
2023-04-02T01:58:58.751Z,150263.97
2023-04-02T02:01:31.596Z,150248.81
2023-04-02T02:03:57.720Z,150282.94
2023-04-02T02:06:23.897Z,150269.00
2023-04-02T02:08:58.625Z,150256.41
2023-04-02T02:11:27.901Z,150263.97
2023-04-02T02:14:01.606Z,150232.41
2023-04-02T02:16:29.277Z,150232.41
2023-04-02T02:19:01.798Z,150205.97
2023-04-02T02:21:32.349Z,150185.78
2023-04-02T02:23:59.604Z,150189.56
2023-04-02T02:26:28.879Z,150187.03
2023-04-02T02:28:56.351Z,150184.53
2023-04-02T02:31:29.022Z,150175.69
2023-04-02T02:34:02.116Z,150168.13
2023-04-02T02:36:32.799Z,150156.75
2023-04-02T02:39:45.046Z,150155.50
2023-04-02T02:42:38.798Z,150155.50
2023-04-02T02:45:14.186Z,150136.59
2023-04-02T02:47:43.261Z,150130.31
2023-04-02T02:50:20.290Z,150116.41
2023-04-02T02:52:50.108Z,150103.81
2023-04-02T02:55:21.172Z,150072.28
2023-04-02T02:57:55.651Z,150091.19
2023-04-02T03:00:23.907Z,150083.63
2023-04-02T03:02:53.164Z,150030.69
2023-04-02T03:05:23.031Z,150068.50
2023-04-02T03:07:54.749Z,150079.88
2023-04-02T03:10:33.130Z,150091.19
2023-04-02T03:13:15.130Z,150058.44
2023-04-02T03:15:54.028Z,150058.44
2023-04-02T03:18:27.989Z,150023.16
2023-04-02T03:21:00.484Z,150043.31
2023-04-02T03:23:40.742Z,150024.41
2023-04-02T03:26:10.271Z,150004.25
2023-04-02T03:28:42.825Z,150015.56
2023-04-02T03:31:18.328Z,149989.09
2023-04-02T03:33:58.729Z,149992.88
2023-04-02T03:36:33.202Z,150015.56
2023-04-02T03:39:11.843Z,149968.94
2023-04-02T03:41:44.629Z,149963.88
2023-04-02T03:44:40.259Z,149952.56
2023-04-02T03:47:18.186Z,149944.97
2023-04-02T03:50:11.723Z,149931.09
2023-04-02T03:52:38.465Z,149934.91
2023-04-02T03:55:18.649Z,149953.81
2023-04-02T03:58:17.314Z,149917.28
2023-04-02T04:00:49.632Z,149912.19
2023-04-02T04:03:31.359Z,149919.78
2023-04-02T04:06:05.745Z,149929.84
2023-04-02T04:08:43.989Z,149917.28
2023-04-02T04:11:17.770Z,149941.19
2023-04-02T04:13:59.216Z,149912.19
2023-04-02T04:16:39.497Z,149907.19
2023-04-02T04:19:44.757Z,149890.78
2023-04-02T04:22:18.100Z,149874.41
2023-04-02T04:24:48.168Z,149849.22
2023-04-02T04:27:32.895Z,149864.34
2023-04-02T04:30:23.696Z,149870.63
2023-04-02T04:32:57.537Z,149868.13
2023-04-02T04:35:49.167Z,149887.03
2023-04-02T04:38:27.414Z,149839.13
2023-04-02T04:41:01.362Z,149820.22
2023-04-02T04:43:37.935Z,149863.09
2023-04-02T04:46:10.383Z,149878.19
2023-04-02T04:48:45.568Z,149876.91
2023-04-02T04:51:27.345Z,149864.34
2023-04-02T04:53:55.013Z,149890.78
2023-04-02T04:56:26.926Z,149885.75
2023-04-02T04:59:24.666Z,149831.59
2023-04-02T05:01:56.617Z,149847.97
2023-04-02T05:04:32.786Z,149837.88
2023-04-02T05:07:29.474Z,149831.59
2023-04-02T05:10:01.026Z,149815.22
2023-04-02T05:12:41.407Z,149792.56
2023-04-02T05:15:25.520Z,149774.91
2023-04-02T05:18:00.081Z,149849.22
2023-04-02T05:20:31.996Z,149846.72
2023-04-02T05:23:26.654Z,149813.97
2023-04-02T05:26:05.161Z,149844.22
2023-04-02T05:28:42.416Z,149815.22
2023-04-02T05:31:39.669Z,149821.50
2023-04-02T05:34:05.928Z,149771.16
2023-04-02T05:36:32.320Z,149797.56
2023-04-02T05:38:59.043Z,149806.38
2023-04-02T05:41:35.747Z,149831.59
2023-04-02T05:44:04.919Z,149824.00
2023-04-02T05:46:43.197Z,149807.69
2023-04-02T05:49:31.928Z,149806.38
2023-04-02T05:52:01.342Z,149800.09
2023-04-02T05:54:33.805Z,149790.03
2023-04-02T05:57:08.426Z,149806.38
2023-04-02T05:59:43.243Z,149771.16
2023-04-02T06:02:30.704Z,149733.31
2023-04-02T06:05:05.894Z,149738.41
2023-04-02T06:07:40.988Z,149732.06
2023-04-02T06:10:34.634Z,149725.78
2023-04-02T06:13:06.201Z,149715.69
2023-04-02T06:15:34.598Z,149729.56
2023-04-02T06:18:00.744Z,149732.06
2023-04-02T06:20:27.424Z,149684.25
2023-04-02T06:23:01.116Z,149672.91
2023-04-02T06:25:34.432Z,149703.13
2023-04-02T06:28:04.580Z,149649.00
2023-04-02T06:30:34.754Z,149652.75
2023-04-02T06:33:00.831Z,149684.25
2023-04-02T06:35:27.316Z,149646.47
2023-04-02T06:37:56.723Z,149662.81
2023-04-02T06:40:34.919Z,149649.00
2023-04-02T06:43:08.046Z,149640.16
2023-04-02T06:45:40.725Z,149578.50
2023-04-02T06:48:15.837Z,149586.03
2023-04-02T06:50:53.809Z,149599.88
2023-04-02T06:53:25.768Z,149635.13
2023-04-02T06:56:17.485Z,149627.59
2023-04-02T06:58:43.330Z,149628.84
2023-04-02T07:01:17.439Z,149638.91
2023-04-02T07:03:43.380Z,149618.75
2023-04-02T07:06:15.422Z,149620.03
2023-04-02T07:08:41.187Z,149612.50
2023-04-02T07:11:07.003Z,149625.03
2023-04-02T07:13:32.805Z,149655.28
2023-04-02T07:15:58.676Z,149630.13
2023-04-02T07:18:33.027Z,149617.50
2023-04-02T07:20:59.538Z,149632.63
2023-04-02T07:23:25.426Z,149649.00
2023-04-02T07:25:55.417Z,149636.38
2023-04-02T07:28:22.684Z,149651.50
2023-04-02T07:30:50.091Z,149657.78
2023-04-02T07:33:18.388Z,149627.59
2023-04-02T07:35:44.670Z,149627.59
2023-04-02T07:38:10.594Z,149632.63
2023-04-02T07:40:36.880Z,149626.31
2023-04-02T07:43:03.892Z,149650.25
2023-04-02T07:45:29.862Z,149652.75
2023-04-02T07:47:56.027Z,149652.75
2023-04-02T07:50:22.358Z,149650.25
2023-04-02T07:52:48.267Z,149657.78
2023-04-02T07:55:15.412Z,149615.00
2023-04-02T07:57:53.454Z,149633.88
2023-04-02T08:00:20.394Z,149660.28
2023-04-02T08:02:46.849Z,149636.38
2023-04-02T08:05:13.404Z,149628.84
2023-04-02T08:07:39.405Z,149594.88
2023-04-02T08:10:06.748Z,149623.78
2023-04-02T08:12:32.691Z,149640.16
2023-04-02T08:14:58.475Z,149608.66
2023-04-02T08:17:24.364Z,149622.53
2023-04-02T08:19:55.020Z,149586.03
2023-04-02T08:22:21.242Z,149573.44
2023-04-02T08:24:47.075Z,149573.44
2023-04-02T08:27:14.488Z,149516.81
2023-04-02T08:29:40.323Z,149511.78
2023-04-02T08:32:06.827Z,149496.66
2023-04-02T08:34:32.769Z,149506.75
2023-04-02T08:36:58.598Z,149501.69
2023-04-02T08:39:28.514Z,149496.66
2023-04-02T08:42:17.868Z,149528.13
2023-04-02T08:45:20.858Z,149509.28
2023-04-02T08:47:52.736Z,149515.53
2023-04-02T08:50:32.322Z,149504.25
2023-04-02T08:53:01.912Z,149530.66
2023-04-02T08:55:33.445Z,149552.03
2023-04-02T08:58:38.292Z,149577.25
2023-04-02T09:01:07.355Z,149539.47
2023-04-02T09:03:50.997Z,149516.81
2023-04-02T09:06:21.054Z,149525.63
2023-04-02T09:08:53.101Z,149514.28
2023-04-02T09:11:24.255Z,149543.25
2023-04-02T09:13:59.809Z,149555.81
2023-04-02T09:16:45.961Z,149513.03
2023-04-02T09:19:34.705Z,149536.94
2023-04-02T09:22:05.686Z,149554.56
2023-04-02T09:24:32.562Z,149583.50
2023-04-02T09:26:58.748Z,149599.88
2023-04-02T09:29:42.417Z,149589.78
2023-04-02T09:32:30.973Z,149615.00
2023-04-02T09:35:24.730Z,149570.91
2023-04-02T09:38:07.358Z,149564.63
2023-04-02T09:40:41.538Z,149554.56
2023-04-02T09:43:22.625Z,149586.03
2023-04-02T09:45:57.621Z,149587.28
2023-04-02T09:48:38.519Z,149593.59
2023-04-02T09:51:05.030Z,149583.50
2023-04-02T09:53:35.003Z,149572.16
2023-04-02T09:56:22.509Z,149545.75
2023-04-02T09:59:15.512Z,149578.50
2023-04-02T10:01:49.091Z,149575.97
2023-04-02T10:04:44.561Z,149545.75
2023-04-02T10:07:33.835Z,149533.16
2023-04-02T10:10:28.210Z,149545.75
2023-04-02T10:12:59.427Z,149574.72
2023-04-02T10:15:32.772Z,149581.00
2023-04-02T10:18:12.673Z,149584.78
2023-04-02T10:20:50.516Z,149620.03
2023-04-02T10:23:18.880Z,149627.59
2023-04-02T10:25:55.166Z,149637.66
2023-04-02T10:28:58.747Z,149724.53
2023-04-02T10:32:11.720Z,149738.41
2023-04-02T10:35:10.713Z,149700.63
2023-04-02T10:37:46.221Z,149695.56
2023-04-02T10:40:47.547Z,149720.75
2023-04-02T10:43:53.490Z,149676.66
2023-04-02T10:46:43.030Z,149714.44
2023-04-02T10:49:27.462Z,149683.00
2023-04-02T10:52:06.342Z,149722.03
2023-04-02T10:54:44.418Z,149703.13
2023-04-02T10:57:38.114Z,149683.00
2023-04-02T11:00:10.347Z,149693.03
2023-04-02T11:02:43.687Z,149661.56
2023-04-02T11:05:39.600Z,149677.94
2023-04-02T11:08:44.207Z,149699.38
2023-04-02T11:11:42.482Z,149664.09
2023-04-02T11:14:19.304Z,149667.88
2023-04-02T11:16:48.523Z,149650.25
2023-04-02T11:19:14.363Z,149625.03
2023-04-02T11:21:58.645Z,149633.88
2023-04-02T11:24:29.613Z,149657.78
2023-04-02T11:27:29.985Z,149660.28
2023-04-02T11:30:15.076Z,149670.38
2023-04-02T11:32:46.646Z,149669.13
2023-04-02T11:35:35.370Z,149679.19
2023-04-02T11:38:10.644Z,149710.66
2023-04-02T11:40:44.232Z,149672.91
2023-04-02T11:43:32.115Z,149708.16
2023-04-02T11:46:17.414Z,149703.13
2023-04-02T11:48:44.153Z,149670.38
2023-04-02T11:51:22.271Z,149680.44
2023-04-02T11:53:53.672Z,149739.66
2023-04-02T11:56:21.148Z,149761.06
2023-04-02T11:59:05.843Z,149728.31
2023-04-02T12:02:05.931Z,149786.22
2023-04-02T12:04:45.877Z,149772.41
2023-04-02T12:07:25.902Z,149801.34
2023-04-02T12:09:51.818Z,149851.75
2023-04-02T12:12:23.616Z,149797.56
2023-04-02T12:15:00.020Z,149790.03
2023-04-02T12:17:39.322Z,149774.91
2023-04-02T12:20:08.807Z,149745.94
2023-04-02T12:22:38.473Z,149729.56
2023-04-02T12:25:21.334Z,149737.13
2023-04-02T12:27:47.482Z,149724.53
2023-04-02T12:30:19.723Z,149771.16
2023-04-02T12:32:45.770Z,149719.50
2023-04-02T12:35:31.739Z,149719.50
2023-04-02T12:37:58.125Z,149740.91
2023-04-02T12:40:25.836Z,149720.75
2023-04-02T12:42:51.703Z,149714.44
2023-04-02T12:45:29.309Z,149735.88
2023-04-02T12:47:57.836Z,149735.88
2023-04-02T12:50:23.819Z,149757.28
2023-04-02T12:52:52.547Z,149738.41
2023-04-02T12:55:26.381Z,149715.69
2023-04-02T12:57:56.816Z,149684.25
2023-04-02T13:00:23.777Z,149664.09
2023-04-02T13:02:57.921Z,149699.38
2023-04-02T13:05:37.314Z,149718.25
2023-04-02T13:08:04.989Z,149734.59
2023-04-02T13:10:31.206Z,149730.81
2023-04-02T13:13:02.515Z,149686.75
2023-04-02T13:15:31.321Z,149703.13
2023-04-02T13:18:12.196Z,149716.94
2023-04-02T13:20:40.498Z,149735.88
2023-04-02T13:23:30.891Z,149714.44
2023-04-02T13:26:09.842Z,149767.34
2023-04-02T13:28:35.989Z,149747.19
2023-04-02T13:31:02.083Z,149752.22
2023-04-02T13:33:27.955Z,149748.44
2023-04-02T13:35:53.861Z,149738.41
2023-04-02T13:38:19.818Z,149723.28
2023-04-02T13:40:45.959Z,149733.31
2023-04-02T13:43:19.595Z,149773.66
2023-04-02T13:45:50.928Z,149769.84
2023-04-02T13:48:17.656Z,149756.03
2023-04-02T13:50:45.406Z,149734.59
2023-04-02T13:53:24.075Z,149752.22
2023-04-02T13:55:51.412Z,149704.38
2023-04-02T13:58:18.408Z,149683.00
2023-04-02T14:00:45.456Z,149698.06
2023-04-02T14:03:18.568Z,149694.28
2023-04-02T14:05:56.476Z,149698.06
2023-04-02T14:08:31.948Z,149716.94
2023-04-02T14:11:26.368Z,149708.16
2023-04-02T14:14:20.311Z,149718.25
2023-04-02T14:17:02.520Z,149690.53
2023-04-02T14:19:56.016Z,149689.28
2023-04-02T14:22:46.335Z,149725.78
2023-04-02T14:25:26.727Z,149743.41
2023-04-02T14:27:55.474Z,149730.81
2023-04-02T14:30:58.291Z,149706.91
2023-04-02T14:34:03.926Z,149679.19
2023-04-02T14:36:44.311Z,149730.81
2023-04-02T14:39:13.185Z,149753.50
2023-04-02T14:41:46.744Z,149714.44
2023-04-02T14:44:12.680Z,149725.78
2023-04-02T14:46:39.149Z,149841.66
2023-04-02T14:49:16.576Z,149850.47
2023-04-02T14:51:54.219Z,149870.63
2023-04-02T14:54:38.994Z,149854.25
2023-04-02T14:57:20.718Z,149861.84
2023-04-02T15:00:19.785Z,149858.03
2023-04-02T15:02:52.409Z,149829.09
2023-04-02T15:05:23.743Z,149855.50
2023-04-02T15:08:02.307Z,149892.03
2023-04-02T15:10:35.069Z,149960.09
2023-04-02T15:13:06.107Z,149948.75
2023-04-02T15:15:45.085Z,149931.09
2023-04-02T15:18:14.758Z,149932.41
2023-04-02T15:20:52.207Z,150028.19
2023-04-02T15:23:48.198Z,150224.88
2023-04-02T15:26:23.286Z,150294.31
2023-04-02T15:29:02.137Z,150279.13
2023-04-02T15:31:28.113Z,150232.41
2023-04-02T15:34:24.989Z,150305.63
2023-04-02T15:37:08.119Z,150266.50
2023-04-02T15:39:43.225Z,150227.41
2023-04-02T15:42:18.196Z,150238.75
2023-04-02T15:45:08.895Z,150217.28
2023-04-02T15:47:56.161Z,150261.44
2023-04-02T15:50:30.808Z,150262.72
2023-04-02T15:53:38.444Z,150213.50
2023-04-02T15:56:18.021Z,150146.66
2023-04-02T15:59:10.186Z,150092.44
2023-04-02T16:02:02.048Z,150043.31
2023-04-02T16:04:55.724Z,150001.69
2023-04-02T16:07:42.569Z,150040.78
2023-04-02T16:10:42.873Z,150073.53
2023-04-02T16:13:24.972Z,150024.41
2023-04-02T16:16:26.072Z,150047.06
2023-04-02T16:19:00.641Z,150052.09
2023-04-02T16:21:32.719Z,150001.69
2023-04-02T16:23:58.648Z,149976.50
2023-04-02T16:26:27.081Z,149985.28
2023-04-02T16:29:18.459Z,149947.47
2023-04-02T16:31:55.298Z,149960.09
2023-04-02T16:34:36.163Z,149947.47
2023-04-02T16:37:13.249Z,149932.41
2023-04-02T16:39:44.334Z,149912.19
2023-04-02T16:42:30.055Z,149908.44
2023-04-02T16:45:11.317Z,149913.47
2023-04-02T16:48:04.218Z,149914.75
2023-04-02T16:50:38.989Z,149936.19
2023-04-02T16:53:16.648Z,149908.44
2023-04-02T16:56:16.849Z,149899.63
2023-04-02T16:58:45.710Z,149859.28
2023-04-02T17:01:33.546Z,149892.03
2023-04-02T17:04:36.628Z,149922.31
2023-04-02T17:07:26.556Z,149887.03
2023-04-02T17:10:02.054Z,149864.34
2023-04-02T17:12:33.050Z,149861.84
2023-04-02T17:15:07.375Z,149850.47
2023-04-02T17:17:37.350Z,149861.84
2023-04-02T17:20:13.359Z,149870.63
2023-04-02T17:22:39.853Z,149832.84
2023-04-02T17:25:14.684Z,149832.84
2023-04-02T17:27:45.438Z,149826.56
2023-04-02T17:30:39.511Z,149829.09
2023-04-02T17:33:16.492Z,149811.44
2023-04-02T17:35:54.172Z,149779.94
2023-04-02T17:38:30.747Z,149797.56
2023-04-02T17:41:19.116Z,149817.72
2023-04-02T17:43:50.477Z,149792.56
2023-04-02T17:46:45.201Z,149777.44
2023-04-02T17:49:23.009Z,149745.94
2023-04-02T17:51:58.529Z,149767.34
2023-04-02T17:54:57.179Z,149728.31
2023-04-02T17:57:35.006Z,149711.94
2023-04-02T18:00:24.829Z,149708.16
2023-04-02T18:03:26.311Z,149703.13
2023-04-02T18:06:14.838Z,149706.91
2023-04-02T18:08:59.140Z,149642.66
2023-04-02T18:11:35.865Z,149572.16
2023-04-02T18:14:18.932Z,149524.38
2023-04-02T18:16:57.906Z,149480.31
2023-04-02T18:19:53.358Z,149486.63
2023-04-02T18:22:25.491Z,149482.81
2023-04-02T18:25:19.631Z,149447.59
2023-04-02T18:27:48.169Z,149469.00
2023-04-02T18:30:35.519Z,149452.66
2023-04-02T18:33:18.799Z,149467.75
2023-04-02T18:36:11.128Z,149472.78
2023-04-02T18:38:54.770Z,149443.81
2023-04-02T18:41:46.288Z,149426.22
2023-04-02T18:44:48.421Z,149426.22
2023-04-02T18:47:17.029Z,149406.09
2023-04-02T18:49:57.448Z,149377.19
2023-04-02T18:52:24.205Z,149384.72
2023-04-02T18:55:21.035Z,149388.47
2023-04-02T18:57:52.142Z,149324.34
2023-04-02T19:00:51.213Z,149350.75
2023-04-02T19:03:37.468Z,149310.50
2023-04-02T19:06:18.893Z,149296.66
2023-04-02T19:08:55.616Z,149308.00
2023-04-02T19:11:30.653Z,149310.50
2023-04-02T19:14:17.690Z,149335.63
2023-04-02T19:17:14.472Z,149333.13
2023-04-02T19:20:03.059Z,149314.28
2023-04-02T19:22:38.078Z,149290.38
2023-04-02T19:25:26.495Z,149296.66
2023-04-02T19:28:06.974Z,149330.63
2023-04-02T19:30:32.785Z,149299.16
2023-04-02T19:33:19.744Z,149309.25
2023-04-02T19:36:05.743Z,149282.81
2023-04-02T19:38:37.304Z,149272.78
2023-04-02T19:41:21.697Z,149253.94
2023-04-02T19:43:47.656Z,149301.69
2023-04-02T19:46:13.966Z,149287.88
2023-04-02T19:48:56.736Z,149270.28
2023-04-02T19:51:23.510Z,149292.91
2023-04-02T19:53:49.420Z,149271.53
2023-04-02T19:56:15.419Z,149276.53
2023-04-02T19:58:41.246Z,149309.25
2023-04-02T20:01:07.153Z,149281.56
2023-04-02T20:03:32.998Z,149276.53
2023-04-02T20:05:59.188Z,149308.00
2023-04-02T20:08:26.517Z,149302.94
2023-04-02T20:10:52.530Z,149308.00
2023-04-02T20:13:18.723Z,149252.69
2023-04-02T20:15:45.202Z,149279.06
2023-04-02T20:18:11.144Z,149270.28
2023-04-02T20:20:38.608Z,149268.97
2023-04-02T20:23:04.792Z,149281.56
2023-04-02T20:25:31.247Z,149271.53
2023-04-02T20:27:57.257Z,149275.28
2023-04-02T20:30:23.101Z,149292.91
2023-04-02T20:32:49.111Z,149294.16
2023-04-02T20:35:15.229Z,149294.16
2023-04-02T20:37:41.187Z,149274.03
2023-04-02T20:40:09.267Z,149260.19
2023-04-02T20:42:35.315Z,149275.28
2023-04-02T20:45:01.678Z,149266.47
2023-04-02T20:47:27.606Z,149267.72
2023-04-02T20:49:53.625Z,149285.31
2023-04-02T20:52:19.480Z,149299.16
2023-04-02T20:54:45.495Z,149290.38
2023-04-02T20:57:11.621Z,149300.44
2023-04-02T20:59:37.415Z,149316.78
2023-04-02T21:02:03.257Z,149302.94
2023-04-02T21:04:29.111Z,149308.00
2023-04-02T21:06:56.410Z,149292.91
2023-04-02T21:09:22.978Z,149280.31
2023-04-02T21:11:49.347Z,149279.06
2023-04-02T21:14:17.422Z,149222.47
2023-04-02T21:16:43.334Z,149243.84
2023-04-02T21:19:10.031Z,149271.53
2023-04-02T21:21:40.137Z,149257.69
2023-04-02T21:24:08.606Z,149257.69
2023-04-02T21:26:37.364Z,149247.63
2023-04-02T21:29:04.360Z,149208.63
2023-04-02T21:31:34.914Z,149236.31
2023-04-02T21:34:01.282Z,149263.97
2023-04-02T21:36:29.845Z,149238.84
2023-04-02T21:38:58.402Z,149223.75
2023-04-02T21:41:41.975Z,149202.38
2023-04-02T21:44:12.032Z,149191.03
2023-04-02T21:46:38.915Z,149243.84
2023-04-02T21:49:07.619Z,149241.34
2023-04-02T21:51:35.848Z,149247.63
2023-04-02T21:54:02.660Z,149245.09
2023-04-02T21:56:37.085Z,149253.94
2023-04-02T21:59:05.174Z,149232.50
2023-04-02T22:01:37.083Z,149248.88
2023-04-02T22:04:05.527Z,149228.75
2023-04-02T22:06:35.438Z,149246.34
2023-04-02T22:09:05.340Z,149231.25
2023-04-02T22:11:37.870Z,149236.31
2023-04-02T22:14:05.168Z,149247.63
2023-04-02T22:16:33.588Z,149236.31
2023-04-02T22:19:01.299Z,149231.25
2023-04-02T22:21:29.993Z,149243.84
2023-04-02T22:24:00.089Z,149246.34
2023-04-02T22:26:26.668Z,149228.75
2023-04-02T22:28:52.737Z,149243.84
2023-04-02T22:31:24.090Z,149246.34
2023-04-02T22:33:51.160Z,149226.25
2023-04-02T22:36:18.550Z,149238.84
2023-04-02T22:38:45.242Z,149251.38
2023-04-02T22:41:16.660Z,149227.50
2023-04-02T22:43:44.275Z,149237.56
2023-04-02T22:46:12.284Z,149236.31
2023-04-02T22:48:40.731Z,149248.88
2023-04-02T22:51:08.610Z,149232.50
2023-04-02T22:53:35.792Z,149202.38
2023-04-02T22:56:28.103Z,149230.00
2023-04-02T22:58:53.966Z,149217.47
2023-04-02T23:01:40.393Z,149213.66
2023-04-02T23:04:06.249Z,149208.63
2023-04-02T23:06:32.266Z,149218.72
2023-04-02T23:08:58.187Z,149212.41
2023-04-02T23:11:26.503Z,149243.84
2023-04-02T23:13:55.063Z,149252.69
2023-04-02T23:16:22.374Z,149251.38
2023-04-02T23:18:48.406Z,149237.56
2023-04-02T23:21:15.674Z,149241.34
2023-04-02T23:23:41.561Z,149242.59
2023-04-02T23:26:10.629Z,149186.03
2023-04-02T23:28:37.295Z,149227.50
2023-04-02T23:31:04.740Z,149236.31
2023-04-02T23:33:30.913Z,149211.16
2023-04-02T23:35:57.582Z,149208.63
2023-04-02T23:38:24.878Z,149183.53
2023-04-02T23:40:51.682Z,149160.84
2023-04-02T23:43:17.528Z,149164.66
2023-04-02T23:45:49.854Z,149186.03
2023-04-02T23:48:16.604Z,149194.81
2023-04-02T23:50:45.623Z,149187.28
2023-04-02T23:53:12.627Z,149187.28
2023-04-02T23:55:39.760Z,149163.41
2023-04-02T23:58:05.693Z,149143.25
